createdAt,value
2023-01-09T00:01:42.433Z,14.20
2023-01-09T00:04:11.612Z,13.97
2023-01-09T00:06:40.476Z,13.90
2023-01-09T00:09:08.348Z,14.33
2023-01-09T00:11:36.025Z,14.37
2023-01-09T00:14:05.058Z,14.37
2023-01-09T00:16:32.847Z,14.20
2023-01-09T00:19:00.906Z,15.20
2023-01-09T00:21:30.109Z,14.27
2023-01-09T00:23:57.810Z,14.73
2023-01-09T00:26:25.395Z,14.67
2023-01-09T00:28:54.106Z,14.63
2023-01-09T00:31:22.057Z,15.00
2023-01-09T00:33:54.001Z,14.67
2023-01-09T00:36:22.593Z,15.60
2023-01-09T00:38:52.014Z,14.57
2023-01-09T00:41:21.887Z,15.80
2023-01-09T00:43:52.442Z,15.00
2023-01-09T00:46:20.808Z,15.50
2023-01-09T00:48:49.848Z,15.70
2023-01-09T00:51:19.461Z,15.60
2023-01-09T00:53:47.892Z,15.40
2023-01-09T00:56:18.687Z,16.20
2023-01-09T00:58:46.711Z,15.50
2023-01-09T01:01:14.531Z,15.73
2023-01-09T01:03:42.421Z,16.10
2023-01-09T01:06:27.876Z,15.70
2023-01-09T01:08:56.908Z,15.23
2023-01-09T01:11:25.874Z,16.20
2023-01-09T01:13:53.969Z,16.10
2023-01-09T01:16:21.806Z,16.20
2023-01-09T01:18:50.485Z,16.30
2023-01-09T01:21:18.349Z,16.00
2023-01-09T01:23:46.192Z,17.07
2023-01-09T01:26:15.377Z,16.70
2023-01-09T01:28:44.562Z,16.53
2023-01-09T01:31:17.082Z,16.47
2023-01-09T01:33:44.835Z,15.97
2023-01-09T01:36:12.569Z,16.97
2023-01-09T01:38:42.018Z,16.00
2023-01-09T01:41:09.743Z,16.83
2023-01-09T01:43:55.081Z,16.20
2023-01-09T01:46:22.938Z,16.60
2023-01-09T01:48:51.545Z,17.40
2023-01-09T01:51:21.204Z,18.07
2023-01-09T01:53:50.559Z,17.23
2023-01-09T01:56:19.270Z,17.20
2023-01-09T01:58:49.783Z,17.20
2023-01-09T02:01:19.544Z,17.53
2023-01-09T02:03:47.957Z,18.00
2023-01-09T02:06:16.235Z,17.50
2023-01-09T02:08:44.138Z,18.03
2023-01-09T02:11:14.338Z,18.63
2023-01-09T02:13:44.967Z,17.80
2023-01-09T02:16:17.736Z,17.23
2023-01-09T02:18:51.195Z,16.80
2023-01-09T02:21:25.176Z,17.20
2023-01-09T02:24:17.684Z,17.23
2023-01-09T02:26:53.027Z,17.87
2023-01-09T02:29:45.720Z,18.43
2023-01-09T02:32:20.601Z,18.47
2023-01-09T02:34:54.248Z,17.43
2023-01-09T02:37:25.787Z,18.10
2023-01-09T02:39:58.173Z,17.57
2023-01-09T02:42:27.070Z,19.00
2023-01-09T02:44:54.704Z,19.07
2023-01-09T02:47:37.568Z,18.23
2023-01-09T02:50:09.143Z,18.13
2023-01-09T02:52:45.557Z,18.00
2023-01-09T02:55:19.578Z,18.87
2023-01-09T02:57:55.589Z,19.13
2023-01-09T03:00:29.783Z,19.03
2023-01-09T03:03:03.748Z,18.00
2023-01-09T03:05:36.881Z,19.40
2023-01-09T03:08:06.367Z,18.67
2023-01-09T03:10:37.123Z,18.60
2023-01-09T03:13:05.490Z,18.17
2023-01-09T03:15:35.572Z,18.50
2023-01-09T03:18:05.015Z,18.10
2023-01-09T03:20:34.527Z,19.20
2023-01-09T03:23:03.572Z,18.97
2023-01-09T03:25:32.006Z,19.27
2023-01-09T03:28:01.022Z,19.10
2023-01-09T03:30:29.708Z,20.20
2023-01-09T03:32:57.732Z,18.93
2023-01-09T03:35:25.624Z,19.40
2023-01-09T03:37:56.957Z,20.20
2023-01-09T03:40:24.758Z,19.27
2023-01-09T03:42:52.462Z,19.73
2023-01-09T03:45:20.451Z,18.93
2023-01-09T03:47:48.166Z,18.97
2023-01-09T03:50:16.056Z,19.53
2023-01-09T03:52:43.840Z,20.43
2023-01-09T03:55:15.388Z,19.43
2023-01-09T03:57:43.429Z,18.20
2023-01-09T04:00:11.785Z,18.33
2023-01-09T04:02:39.722Z,20.30
2023-01-09T04:05:09.695Z,18.33
2023-01-09T04:07:37.553Z,19.30
2023-01-09T04:10:05.562Z,18.97
2023-01-09T04:12:34.921Z,19.10
2023-01-09T04:15:02.639Z,19.50
2023-01-09T04:17:30.759Z,18.97
2023-01-09T04:19:59.131Z,18.00
2023-01-09T04:22:26.757Z,19.53
2023-01-09T04:24:54.623Z,18.63
2023-01-09T04:27:22.479Z,19.40
2023-01-09T04:29:51.486Z,18.73
2023-01-09T04:32:19.318Z,18.27
2023-01-09T04:34:47.081Z,18.90
2023-01-09T04:37:14.735Z,18.87
2023-01-09T04:39:44.319Z,18.70
2023-01-09T04:42:12.822Z,18.50
2023-01-09T04:44:40.467Z,17.80
2023-01-09T04:47:09.751Z,17.03
2023-01-09T04:49:37.734Z,17.43
2023-01-09T04:52:05.592Z,17.63
2023-01-09T04:54:34.296Z,17.30
2023-01-09T04:57:02.096Z,18.10
2023-01-09T04:59:30.584Z,19.00
2023-01-09T05:01:59.388Z,18.10
2023-01-09T05:04:30.258Z,17.00
2023-01-09T05:06:57.933Z,18.13
2023-01-09T05:09:25.673Z,19.43
2023-01-09T05:11:53.678Z,18.70
2023-01-09T05:14:21.396Z,19.00
2023-01-09T05:16:49.430Z,18.80
2023-01-09T05:19:17.464Z,19.43
2023-01-09T05:21:46.433Z,19.70
2023-01-09T05:24:14.075Z,17.90
2023-01-09T05:26:42.467Z,19.47
2023-01-09T05:29:10.885Z,18.50
2023-01-09T05:31:38.751Z,19.53
2023-01-09T05:34:06.532Z,19.37
2023-01-09T05:36:34.294Z,19.20
2023-01-09T05:39:03.641Z,19.80
2023-01-09T05:41:33.407Z,19.60
2023-01-09T05:44:01.474Z,19.30
2023-01-09T05:46:29.094Z,19.10
2023-01-09T05:48:56.830Z,20.00
2023-01-09T05:51:24.545Z,19.50
2023-01-09T05:53:52.308Z,20.00
2023-01-09T05:56:21.470Z,20.30
2023-01-09T05:58:49.111Z,21.07
2023-01-09T06:01:16.983Z,20.77
2023-01-09T06:03:44.766Z,19.77
2023-01-09T06:06:12.381Z,21.70
2023-01-09T06:08:40.255Z,21.30
2023-01-09T06:11:07.925Z,21.23
2023-01-09T06:13:37.107Z,20.77
2023-01-09T06:16:05.169Z,22.33
2023-01-09T06:18:35.207Z,20.93
2023-01-09T06:21:02.831Z,21.87
2023-01-09T06:23:31.056Z,22.10
2023-01-09T06:25:58.931Z,22.20
2023-01-09T06:28:26.767Z,21.47
2023-01-09T06:30:56.094Z,23.63
2023-01-09T06:33:25.006Z,22.20
2023-01-09T06:35:52.650Z,22.13
2023-01-09T06:38:20.433Z,22.43
2023-01-09T06:40:48.695Z,23.50
2023-01-09T06:43:16.512Z,23.17
2023-01-09T06:45:44.580Z,22.40
2023-01-09T06:48:14.110Z,22.00
2023-01-09T06:50:41.718Z,23.70
2023-01-09T06:53:10.603Z,23.90
2023-01-09T06:55:38.861Z,23.40
2023-01-09T06:58:06.537Z,23.00
2023-01-09T07:00:34.616Z,22.97
2023-01-09T07:03:02.370Z,22.57
2023-01-09T07:05:31.529Z,23.23
2023-01-09T07:07:59.425Z,24.70
2023-01-09T07:10:27.612Z,23.73
2023-01-09T07:12:55.214Z,23.73
2023-01-09T07:15:23.059Z,24.37
2023-01-09T07:17:51.927Z,23.10
2023-01-09T07:20:19.830Z,23.20
2023-01-09T07:22:48.874Z,23.67
2023-01-09T07:25:16.761Z,23.53
2023-01-09T07:27:44.414Z,24.27
2023-01-09T07:30:12.885Z,23.27
2023-01-09T07:32:41.603Z,23.80
2023-01-09T07:35:10.490Z,23.60
2023-01-09T07:37:38.233Z,23.17
2023-01-09T07:40:09.562Z,23.07
2023-01-09T07:42:37.247Z,22.90
2023-01-09T07:45:05.126Z,24.10
2023-01-09T07:47:32.938Z,23.27
2023-01-09T07:50:00.568Z,25.30
2023-01-09T07:52:28.444Z,27.20
2023-01-09T07:54:56.065Z,23.80
2023-01-09T07:57:25.160Z,24.90
2023-01-09T07:59:53.066Z,23.60
2023-01-09T08:02:21.257Z,24.50
2023-01-09T08:04:49.214Z,25.80
2023-01-09T08:07:16.912Z,25.30
2023-01-09T08:09:44.688Z,25.37
2023-01-09T08:12:12.400Z,26.00
2023-01-09T08:14:41.500Z,26.20
2023-01-09T08:17:11.785Z,25.83
2023-01-09T08:19:40.134Z,26.07
2023-01-09T08:22:07.797Z,25.23
2023-01-09T08:24:36.779Z,24.03
2023-01-09T08:27:04.467Z,24.80
2023-01-09T08:29:32.377Z,24.00
2023-01-09T08:32:01.956Z,24.70
2023-01-09T08:34:30.457Z,26.60
2023-01-09T08:36:58.953Z,24.50
2023-01-09T08:39:26.556Z,24.77
2023-01-09T08:42:11.826Z,24.23
2023-01-09T08:44:57.135Z,25.03
2023-01-09T08:47:26.160Z,24.80
2023-01-09T08:49:53.948Z,24.57
2023-01-09T08:52:22.405Z,25.67
2023-01-09T08:54:50.010Z,24.37
2023-01-09T08:57:17.707Z,25.43
2023-01-09T08:59:45.439Z,25.03
2023-01-09T09:02:13.175Z,23.37
2023-01-09T09:04:42.420Z,25.90
2023-01-09T09:07:10.491Z,23.27
2023-01-09T09:09:38.110Z,24.27
2023-01-09T09:12:06.333Z,24.90
2023-01-09T09:14:51.737Z,25.87
2023-01-09T09:17:19.431Z,25.00
2023-01-09T09:19:48.460Z,24.40
2023-01-09T09:22:16.330Z,24.70
2023-01-09T09:24:43.931Z,24.70
2023-01-09T09:27:11.573Z,26.20
2023-01-09T09:29:39.425Z,25.10
2023-01-09T09:32:07.273Z,24.90
2023-01-09T09:34:34.888Z,25.23
2023-01-09T09:37:04.685Z,24.63
2023-01-09T09:39:32.403Z,25.80
2023-01-09T09:42:42.129Z,25.40
2023-01-09T09:45:17.709Z,24.60
2023-01-09T09:47:49.901Z,25.03
2023-01-09T09:50:22.400Z,26.07
2023-01-09T09:52:57.497Z,26.70
2023-01-09T09:55:27.311Z,27.67
2023-01-09T09:57:56.094Z,25.37
2023-01-09T10:00:24.458Z,23.17
2023-01-09T10:02:54.461Z,23.20
2023-01-09T10:05:25.485Z,23.73
2023-01-09T10:07:55.189Z,23.23
2023-01-09T10:10:26.041Z,22.70
2023-01-09T10:12:55.538Z,21.57
2023-01-09T10:15:30.290Z,22.20
2023-01-09T10:18:04.930Z,22.20
2023-01-09T10:20:53.293Z,19.60
2023-01-09T10:23:28.096Z,21.30
2023-01-09T10:25:57.773Z,19.53
2023-01-09T10:28:36.183Z,19.90
2023-01-09T10:31:06.277Z,17.77
2023-01-09T10:33:42.835Z,17.10
2023-01-09T10:36:28.843Z,15.60
2023-01-09T10:39:01.827Z,15.20
2023-01-09T10:41:31.667Z,14.77
2023-01-09T10:44:02.794Z,15.40
2023-01-09T10:46:37.523Z,14.77
2023-01-09T10:49:12.363Z,14.87
2023-01-09T10:51:43.755Z,16.70
2023-01-09T10:54:14.555Z,14.63
2023-01-09T10:56:44.655Z,15.10
2023-01-09T10:59:12.446Z,13.87
2023-01-09T11:01:41.140Z,15.07
2023-01-09T11:04:18.754Z,15.17
2023-01-09T11:06:47.506Z,14.40
2023-01-09T11:09:17.129Z,13.47
2023-01-09T11:11:45.443Z,14.20
2023-01-09T11:14:17.788Z,13.23
2023-01-09T11:16:52.358Z,14.57
2023-01-09T11:19:20.580Z,14.13
2023-01-09T11:21:48.322Z,12.53
2023-01-09T11:24:29.300Z,11.87
2023-01-09T11:27:11.824Z,11.47
2023-01-09T11:29:40.063Z,11.33
2023-01-09T11:32:19.522Z,11.17
2023-01-09T11:34:47.806Z,11.33
2023-01-09T11:37:18.850Z,9.80
2023-01-09T11:39:48.295Z,8.80
2023-01-09T11:42:40.900Z,9.10
2023-01-09T11:45:14.848Z,8.57
2023-01-09T11:47:42.462Z,8.80
2023-01-09T11:50:17.451Z,10.60
2023-01-09T11:52:45.203Z,8.30
2023-01-09T11:55:18.936Z,9.00
2023-01-09T11:57:46.707Z,8.00
2023-01-09T12:00:24.744Z,7.70
2023-01-09T12:02:57.821Z,6.90
2023-01-09T12:05:31.723Z,7.10
2023-01-09T12:08:08.262Z,6.53
2023-01-09T12:10:47.793Z,5.20
2023-01-09T12:13:24.041Z,4.87
2023-01-09T12:15:57.336Z,3.90
2023-01-09T12:18:33.907Z,3.87
2023-01-09T12:21:08.672Z,4.10
2023-01-09T12:23:44.866Z,4.10
2023-01-09T12:26:17.851Z,3.97
2023-01-09T12:28:53.422Z,3.60
2023-01-09T12:31:27.349Z,3.60
2023-01-09T12:33:59.188Z,3.60
2023-01-09T12:36:30.781Z,3.70
2023-01-09T12:39:03.294Z,3.50
2023-01-09T12:41:49.090Z,3.33
2023-01-09T12:44:35.155Z,3.97
2023-01-09T12:47:15.840Z,4.37
2023-01-09T12:49:45.911Z,4.30
2023-01-09T12:52:20.714Z,4.10
2023-01-09T12:54:51.343Z,3.53
2023-01-09T12:57:24.700Z,4.07
2023-01-09T12:59:55.847Z,4.07
2023-01-09T13:02:27.991Z,3.20
2023-01-09T13:04:57.747Z,3.97
2023-01-09T13:07:27.435Z,3.93
2023-01-09T13:09:57.993Z,4.77
2023-01-09T13:12:26.565Z,4.80
2023-01-09T13:14:58.475Z,4.10
2023-01-09T13:17:28.506Z,4.20
2023-01-09T13:19:56.334Z,4.13
2023-01-09T13:22:25.581Z,3.77
2023-01-09T13:25:04.191Z,3.40
2023-01-09T13:27:34.253Z,2.83
2023-01-09T13:30:07.794Z,2.90
2023-01-09T13:32:40.136Z,2.60
2023-01-09T13:35:12.748Z,3.50
2023-01-09T13:37:40.755Z,3.10
2023-01-09T13:40:26.654Z,2.90
2023-01-09T13:42:55.554Z,2.87
2023-01-09T13:45:25.867Z,3.20
2023-01-09T13:48:17.827Z,2.83
2023-01-09T13:50:46.435Z,2.73
2023-01-09T13:53:35.264Z,2.90
2023-01-09T13:56:07.254Z,3.07
2023-01-09T13:58:50.356Z,3.03
2023-01-09T14:01:39.799Z,3.00
2023-01-09T14:04:26.460Z,2.90
2023-01-09T14:07:12.750Z,2.80
2023-01-09T14:09:47.100Z,2.43
2023-01-09T14:12:15.993Z,2.67
2023-01-09T14:14:46.047Z,3.10
2023-01-09T14:17:18.233Z,2.90
2023-01-09T14:19:46.097Z,3.17
2023-01-09T14:22:38.105Z,2.70
2023-01-09T14:28:20.528Z,2.97
2023-01-09T14:31:05.225Z,2.53
2023-01-09T14:33:34.278Z,3.23
2023-01-09T14:36:06.325Z,2.60
2023-01-09T14:38:36.283Z,2.53
2023-01-09T14:41:09.067Z,3.10
2023-01-09T14:43:47.376Z,3.20
2023-01-09T14:46:16.887Z,2.40
2023-01-09T14:48:53.243Z,2.70
2023-01-09T14:51:21.914Z,3.20
2023-01-09T14:53:52.921Z,3.00
2023-01-09T14:56:28.919Z,4.50
2023-01-09T14:59:06.265Z,4.47
2023-01-09T15:01:35.764Z,4.10
2023-01-09T15:04:05.675Z,2.87
2023-01-09T15:06:36.498Z,3.37
2023-01-09T15:09:05.791Z,3.20
2023-01-09T15:11:36.337Z,3.20
2023-01-09T15:14:05.359Z,3.57
2023-01-09T15:16:33.580Z,4.20
2023-01-09T15:19:03.506Z,3.40
2023-01-09T15:21:32.054Z,3.80
2023-01-09T15:24:12.175Z,3.20
2023-01-09T15:26:41.407Z,3.70
2023-01-09T15:29:15.421Z,4.20
2023-01-09T15:31:44.212Z,4.07
2023-01-09T15:34:15.656Z,4.30
2023-01-09T15:36:43.491Z,5.30
2023-01-09T15:39:13.955Z,4.70
2023-01-09T15:42:04.914Z,5.00
2023-01-09T15:44:36.159Z,5.60
2023-01-09T15:47:05.937Z,4.60
2023-01-09T15:49:34.349Z,5.20
2023-01-09T15:52:02.456Z,6.30
2023-01-09T15:54:31.150Z,4.47
2023-01-09T15:57:24.057Z,4.30
2023-01-09T15:59:51.952Z,3.90
2023-01-09T16:02:38.260Z,3.60
2023-01-09T16:05:07.691Z,4.27
2023-01-09T16:07:35.405Z,4.30
2023-01-09T16:10:03.561Z,3.60
2023-01-09T16:12:32.991Z,4.63
2023-01-09T16:15:01.654Z,4.63
2023-01-09T16:17:31.239Z,3.90
2023-01-09T16:20:00.226Z,3.80
2023-01-09T16:22:29.077Z,3.37
2023-01-09T16:24:57.826Z,6.43
2023-01-09T16:27:27.418Z,5.30
2023-01-09T16:29:58.376Z,3.93
2023-01-09T16:32:28.198Z,2.67
2023-01-09T16:34:56.458Z,3.00
2023-01-09T16:37:24.727Z,3.57
2023-01-09T16:40:11.359Z,2.47
2023-01-09T16:43:04.996Z,2.50
2023-01-09T16:45:36.201Z,2.83
2023-01-09T16:48:04.527Z,2.77
2023-01-09T16:50:32.224Z,2.53
2023-01-09T16:53:00.687Z,2.20
2023-01-09T16:55:28.330Z,3.27
2023-01-09T16:57:56.141Z,3.40
2023-01-09T17:00:24.347Z,2.70
2023-01-09T17:02:53.415Z,3.17
2023-01-09T17:05:21.058Z,3.10
2023-01-09T17:07:48.817Z,3.60
2023-01-09T17:10:19.910Z,3.00
2023-01-09T17:12:47.528Z,2.77
2023-01-09T17:15:15.335Z,2.60
2023-01-09T17:17:43.316Z,2.30
2023-01-09T17:20:16.701Z,2.90
2023-01-09T17:22:44.656Z,2.53
2023-01-09T17:25:32.053Z,2.70
2023-01-09T17:28:17.549Z,2.00
2023-01-09T17:30:45.312Z,3.03
2023-01-09T17:33:15.586Z,2.27
2023-01-09T17:35:45.455Z,2.73
2023-01-09T17:38:13.752Z,2.90
2023-01-09T17:40:43.699Z,2.90
2023-01-09T17:43:13.760Z,3.10
2023-01-09T17:45:42.594Z,3.20
2023-01-09T17:48:15.212Z,2.67
2023-01-09T17:50:42.905Z,2.23
2023-01-09T17:53:11.927Z,3.40
2023-01-09T17:55:40.051Z,3.03
2023-01-09T17:58:07.656Z,2.67
2023-01-09T18:00:36.963Z,3.77
2023-01-09T18:03:05.330Z,3.37
2023-01-09T18:05:33.042Z,3.63
2023-01-09T18:08:01.017Z,3.57
2023-01-09T18:10:30.534Z,3.80
2023-01-09T18:12:58.232Z,3.83
2023-01-09T18:15:26.046Z,3.30
2023-01-09T18:17:53.972Z,3.90
2023-01-09T18:20:21.612Z,5.60
2023-01-09T18:22:49.573Z,3.40
2023-01-09T18:25:17.383Z,3.43
2023-01-09T18:27:46.495Z,2.90
2023-01-09T18:30:14.410Z,2.73
2023-01-09T18:32:42.500Z,3.60
2023-01-09T18:35:10.565Z,2.43
2023-01-09T18:37:38.359Z,3.93
2023-01-09T18:40:06.721Z,3.57
2023-01-09T18:42:34.626Z,4.90
2023-01-09T18:45:03.779Z,6.03
2023-01-09T18:47:31.765Z,6.30
2023-01-09T18:49:59.896Z,6.37
2023-01-09T18:52:28.012Z,6.23
2023-01-09T18:54:57.848Z,10.73
2023-01-09T18:57:25.707Z,5.23
2023-01-09T18:59:53.427Z,5.23
2023-01-09T19:02:23.923Z,4.20
2023-01-09T19:04:51.896Z,4.10
2023-01-09T19:07:19.579Z,4.50
2023-01-09T19:09:47.497Z,5.43
2023-01-09T19:12:15.128Z,5.03
2023-01-09T19:14:42.747Z,4.83
2023-01-09T19:17:10.514Z,5.27
2023-01-09T19:19:39.658Z,4.63
2023-01-09T19:22:07.277Z,5.07
2023-01-09T19:24:35.630Z,5.23
2023-01-09T19:27:03.236Z,4.70
2023-01-09T19:29:31.094Z,3.60
2023-01-09T19:31:59.742Z,5.00
2023-01-09T19:34:27.439Z,4.97
2023-01-09T19:36:56.893Z,13.83
2023-01-09T19:39:24.658Z,4.67
2023-01-09T19:41:52.295Z,5.23
2023-01-09T19:44:20.962Z,3.53
2023-01-09T19:46:48.627Z,4.37
2023-01-09T19:49:16.297Z,4.90
2023-01-09T19:51:44.603Z,4.17
2023-01-09T19:54:13.860Z,3.70
2023-01-09T19:56:43.926Z,2.30
2023-01-09T19:59:13.783Z,3.10
2023-01-09T20:01:42.490Z,3.20
2023-01-09T20:04:13.848Z,11.57
2023-01-09T20:06:42.397Z,4.07
2023-01-09T20:09:11.107Z,3.33
2023-01-09T20:11:42.150Z,4.90
2023-01-09T20:14:11.196Z,3.00
2023-01-09T20:16:41.214Z,2.70
2023-01-09T20:19:11.856Z,3.30
2023-01-09T20:21:39.712Z,4.30
2023-01-09T20:24:07.782Z,4.73
2023-01-09T20:26:36.506Z,2.70
2023-01-09T20:29:05.778Z,3.50
2023-01-09T20:31:33.753Z,2.50
2023-01-09T20:34:03.577Z,6.00
2023-01-09T20:36:32.626Z,2.80
2023-01-09T20:39:01.169Z,4.13
2023-01-09T20:41:31.021Z,4.20
2023-01-09T20:43:59.611Z,3.57
2023-01-09T20:46:31.071Z,4.23
2023-01-09T20:49:01.719Z,4.77
2023-01-09T20:51:29.412Z,4.17
2023-01-09T20:53:58.561Z,4.40
2023-01-09T20:56:26.526Z,7.70
2023-01-09T20:58:54.338Z,7.00
2023-01-09T21:01:22.958Z,5.07
2023-01-09T21:03:52.053Z,3.93
2023-01-09T21:06:20.934Z,5.43
2023-01-09T21:08:50.729Z,4.00
2023-01-09T21:11:18.801Z,3.13
2023-01-09T21:13:46.445Z,3.43
2023-01-09T21:16:15.613Z,3.87
2023-01-09T21:18:44.157Z,2.77
2023-01-09T21:21:14.275Z,2.50
2023-01-09T21:23:45.951Z,2.07
2023-01-09T21:26:14.477Z,4.23
2023-01-09T21:28:49.164Z,5.47
2023-01-09T21:31:17.967Z,4.40
2023-01-09T21:33:45.686Z,2.90
2023-01-09T21:36:15.280Z,3.37
2023-01-09T21:38:43.010Z,3.93
2023-01-09T21:41:28.723Z,2.80
2023-01-09T21:44:13.859Z,3.33
2023-01-09T21:46:55.865Z,5.07
2023-01-09T21:49:25.311Z,2.97
2023-01-09T21:51:55.453Z,2.60
2023-01-09T21:54:23.531Z,2.23
2023-01-09T21:56:51.439Z,2.63
2023-01-09T21:59:19.301Z,2.50
2023-01-09T22:01:48.293Z,2.80
2023-01-09T22:04:16.686Z,3.03
2023-01-09T22:06:44.679Z,3.10
2023-01-09T22:09:13.642Z,3.03
2023-01-09T22:11:41.729Z,3.70
2023-01-09T22:14:11.914Z,3.10
2023-01-09T22:16:39.679Z,2.50
2023-01-09T22:19:07.348Z,2.80
2023-01-09T22:21:35.385Z,3.60
2023-01-09T22:24:03.073Z,2.93
2023-01-09T22:26:32.930Z,3.10
2023-01-09T22:29:00.775Z,2.70
2023-01-09T22:31:29.738Z,2.00
2023-01-09T22:33:58.699Z,2.77
2023-01-09T22:36:27.435Z,2.40
2023-01-09T22:38:55.307Z,2.10
2023-01-09T22:41:23.195Z,2.30
2023-01-09T22:43:52.709Z,4.43
2023-01-09T22:46:20.418Z,2.33
2023-01-09T22:48:49.976Z,3.97
2023-01-09T22:51:18.786Z,2.77
2023-01-09T22:53:47.041Z,2.57
2023-01-09T22:56:16.306Z,2.33
2023-01-09T22:58:44.205Z,2.60
2023-01-09T23:01:13.708Z,2.10
2023-01-09T23:03:41.539Z,2.30
2023-01-09T23:06:11.267Z,2.40
2023-01-09T23:08:39.057Z,3.13
2023-01-09T23:11:07.864Z,5.53
2023-01-09T23:13:36.333Z,4.20
2023-01-09T23:16:04.455Z,2.37
2023-01-09T23:18:34.879Z,3.90
2023-01-09T23:21:05.221Z,5.50
2023-01-09T23:23:33.259Z,2.90
2023-01-09T23:26:03.134Z,3.00
2023-01-09T23:28:31.407Z,8.20
2023-01-09T23:31:00.007Z,2.70
2023-01-09T23:33:28.214Z,3.67
2023-01-09T23:35:56.006Z,5.07
2023-01-09T23:38:25.071Z,3.00
2023-01-09T23:40:56.652Z,2.30
2023-01-09T23:43:23.769Z,2.80
2023-01-09T23:45:52.079Z,4.00
2023-01-09T23:48:20.450Z,3.40
2023-01-09T23:50:50.872Z,4.77
2023-01-09T23:53:19.189Z,2.50
2023-01-09T23:55:48.467Z,3.00
2023-01-09T23:58:16.211Z,10.43
